Terminal Aerodrome Forecast
Issued by NWS Knoxville/Tri Cities, TN

Home | Current Version | Previous Version | Text Only | Print | Product List | Glossary On
Versions: 1 2 3 4 5 6 7 8 9 10 11 12 13 14 15 16 17
000
FTUS44 KMRX 291337 AAA
TAFCHA
TAF AMD
KCHA 291337Z 2914/3012 22005KT P6SM BKN030
     FM291600 24006KT P6SM BKN035
     FM291900 25009KT P6SM VCTS BKN040CB
     FM300200 20003KT P6SM SCT050 BKN250
     FM300800 00000KT P6SM BKN030=

USA.gov is the U.S. government's official web portal to all federal, state and local government web resources and services.